createdAt,value
2019-04-29T00:00:13.518Z,72.66
2019-04-29T00:06:19.483Z,72.88
2019-04-29T00:12:27.278Z,73.00
2019-04-29T00:18:42.516Z,73.20
2019-04-29T00:24:48.757Z,73.13
2019-04-29T00:30:54.797Z,73.01
2019-04-29T00:37:10.297Z,73.07
2019-04-29T00:43:37.312Z,73.21
2019-04-29T00:49:43.468Z,73.40
2019-04-29T00:55:50.832Z,73.40
2019-04-29T01:01:56.687Z,73.24
2019-04-29T01:08:03.147Z,73.13
2019-04-29T01:14:09.185Z,73.26
2019-04-29T01:20:16.938Z,73.26
2019-04-29T01:26:44.705Z,73.18
2019-04-29T01:32:51.912Z,73.05
2019-04-29T01:39:01.055Z,72.80
2019-04-29T01:45:07.701Z,72.77
2019-04-29T01:51:13.908Z,73.08
2019-04-29T01:57:19.702Z,73.22
2019-04-29T02:03:25.450Z,73.20
2019-04-29T02:09:52.794Z,73.37
2019-04-29T02:15:58.546Z,73.66
2019-04-29T02:22:26.124Z,73.81
2019-04-29T02:28:32.023Z,73.87
2019-04-29T02:34:43.789Z,73.89
2019-04-29T02:40:57.286Z,73.59
2019-04-29T02:47:03.052Z,73.53
2019-04-29T02:53:08.780Z,73.63
2019-04-29T02:59:16.429Z,73.52
2019-04-29T03:05:25.211Z,73.36
2019-04-29T03:11:30.943Z,73.39
2019-04-29T03:17:37.435Z,73.52
2019-04-29T03:23:43.379Z,73.88
2019-04-29T03:29:49.106Z,73.89
2019-04-29T03:35:56.842Z,73.96
2019-04-29T03:42:06.757Z,74.14
2019-04-29T03:48:10.102Z,73.90
2019-04-29T03:54:15.826Z,73.94
2019-04-29T04:00:22.805Z,74.05
2019-04-29T04:06:43.942Z,74.28
2019-04-29T04:12:51.704Z,74.38
2019-04-29T04:19:06.788Z,74.14
2019-04-29T04:25:14.948Z,74.02
2019-04-29T04:31:20.716Z,73.87
2019-04-29T04:37:26.658Z,73.84
2019-04-29T04:43:32.441Z,73.59
2019-04-29T04:49:38.237Z,73.81
2019-04-29T04:55:47.552Z,73.75
2019-04-29T05:01:53.292Z,73.85
2019-04-29T05:07:59.154Z,73.76
2019-04-29T05:14:05.025Z,73.77
2019-04-29T05:20:11.349Z,73.94
2019-04-29T05:26:17.087Z,73.90
2019-04-29T05:32:22.848Z,74.12
2019-04-29T05:38:38.960Z,74.19
2019-04-29T05:44:50.379Z,74.42
2019-04-29T05:51:15.013Z,74.50
2019-04-29T05:57:25.221Z,74.94
2019-04-29T06:03:28.441Z,74.97
2019-04-29T06:09:34.219Z,75.24
2019-04-29T06:15:40.226Z,75.34
2019-04-29T06:21:46.014Z,75.55
2019-04-29T06:27:52.043Z,75.72
2019-04-29T06:34:00.669Z,75.64
2019-04-29T06:40:06.428Z,75.45
2019-04-29T06:46:12.174Z,75.47
2019-04-29T06:52:17.913Z,75.67
2019-04-29T06:58:23.806Z,75.57
2019-04-29T07:04:30.613Z,74.95
2019-04-29T07:10:37.513Z,74.47
2019-04-29T07:16:45.105Z,74.02
2019-04-29T07:22:51.023Z,73.35
2019-04-29T07:28:56.835Z,73.04
2019-04-29T07:35:05.869Z,72.61
2019-04-29T07:41:14.260Z,71.07
2019-04-29T07:47:19.434Z,69.63
2019-04-29T07:53:34.652Z,68.54
2019-04-29T07:59:33.861Z,65.99
2019-04-29T08:05:41.712Z,65.55
2019-04-29T08:11:49.223Z,63.96
2019-04-29T08:18:05.998Z,60.93
2019-04-29T08:24:04.199Z,60.18
2019-04-29T08:30:11.461Z,58.69
2019-04-29T08:36:17.878Z,59.00
2019-04-29T08:42:28.093Z,57.63
2019-04-29T08:48:36.123Z,57.83
2019-04-29T08:54:41.929Z,56.97
2019-04-29T09:00:51.449Z,53.97
2019-04-29T09:06:56.158Z,53.02
2019-04-29T09:13:01.895Z,52.50
2019-04-29T09:19:07.954Z,50.78
2019-04-29T09:26:01.895Z,50.47
2019-04-29T09:31:56.758Z,50.23
2019-04-29T09:38:02.511Z,49.68
2019-04-29T09:44:26.839Z,49.30
2019-04-29T09:50:34.309Z,49.31
2019-04-29T09:56:40.493Z,48.74
2019-04-29T10:02:57.983Z,48.07
2019-04-29T10:09:05.964Z,48.54
2019-04-29T10:15:13.766Z,48.09
2019-04-29T10:21:21.259Z,47.65
2019-04-29T10:27:27.677Z,46.95
2019-04-29T10:33:33.695Z,46.51
2019-04-29T10:39:48.247Z,45.80
2019-04-29T10:46:06.433Z,45.43
2019-04-29T10:52:12.601Z,46.42
2019-04-29T10:58:22.010Z,45.92
2019-04-29T11:04:31.726Z,44.85
2019-04-29T11:10:36.158Z,41.68
2019-04-29T11:16:46.658Z,42.66
2019-04-29T11:22:57.498Z,44.07
2019-04-29T11:29:07.391Z,43.90
2019-04-29T11:35:28.473Z,40.52
2019-04-29T11:41:45.229Z,40.86
2019-04-29T11:47:52.334Z,43.68
2019-04-29T11:53:58.395Z,43.81
2019-04-29T12:00:16.279Z,41.44
2019-04-29T12:06:23.203Z,41.99
2019-04-29T12:12:29.059Z,41.62
2019-04-29T12:18:39.824Z,41.44
2019-04-29T12:24:45.988Z,40.91
2019-04-29T12:30:53.819Z,40.88
2019-04-29T12:36:59.997Z,40.02
2019-04-29T12:43:23.018Z,40.45
2019-04-29T12:49:29.312Z,41.25
2019-04-29T12:55:45.220Z,39.92
2019-04-29T13:02:19.985Z,40.50
2019-04-29T13:08:31.410Z,38.76
2019-04-29T13:14:39.939Z,39.14
2019-04-29T13:20:50.753Z,39.33
2019-04-29T13:26:54.964Z,39.71
2019-04-29T13:33:05.063Z,39.99
2019-04-29T13:39:10.374Z,40.98
2019-04-29T13:45:20.112Z,39.79
2019-04-29T13:51:35.894Z,39.10
2019-04-29T13:57:36.098Z,38.84
2019-04-29T14:04:04.021Z,39.67
2019-04-29T14:10:14.808Z,39.56
2019-04-29T14:16:19.333Z,38.45
2019-04-29T14:22:25.530Z,38.73
2019-04-29T14:28:31.400Z,39.70
2019-04-29T14:34:59.642Z,39.47
2019-04-29T14:41:05.975Z,39.01
2019-04-29T14:47:21.075Z,38.66
2019-04-29T14:53:27.302Z,39.84
2019-04-29T14:59:33.560Z,39.93
2019-04-29T15:05:39.819Z,40.05
2019-04-29T15:11:58.910Z,40.43
2019-04-29T15:18:38.697Z,40.99
2019-04-29T15:24:32.318Z,40.55
2019-04-29T15:30:38.852Z,40.10
2019-04-29T15:36:44.677Z,39.95
2019-04-29T15:42:53.125Z,40.35
2019-04-29T15:48:58.012Z,41.04
2019-04-29T15:55:04.227Z,41.55
2019-04-29T16:01:14.693Z,42.54
2019-04-29T16:07:29.006Z,43.04
2019-04-29T16:13:35.056Z,43.76
2019-04-29T16:19:41.330Z,43.61
2019-04-29T16:25:52.159Z,43.64
2019-04-29T16:32:02.137Z,44.43
2019-04-29T16:38:05.810Z,45.39
2019-04-29T16:44:34.033Z,46.15
2019-04-29T16:50:19.607Z,46.61
2019-04-29T16:56:25.742Z,46.74
2019-04-29T17:02:31.876Z,47.09
2019-04-29T17:09:02.960Z,47.36
2019-04-29T17:15:14.941Z,48.05
2019-04-29T17:21:11.428Z,48.77
2019-04-29T17:27:28.207Z,49.71
2019-04-29T17:33:56.828Z,49.82
2019-04-29T17:40:03.019Z,49.92
2019-04-29T17:46:26.188Z,50.39
2019-04-29T17:52:32.316Z,50.83
2019-04-29T17:58:43.920Z,51.51
2019-04-29T18:05:07.921Z,52.05
2019-04-29T18:11:15.012Z,52.62
2019-04-29T18:17:27.214Z,53.13
2019-04-29T18:23:59.446Z,53.60
2019-04-29T18:30:07.272Z,53.66
2019-04-29T18:36:21.795Z,54.23
2019-04-29T18:42:21.026Z,54.89
2019-04-29T18:48:27.199Z,55.50
2019-04-29T18:54:35.607Z,55.91
2019-04-29T19:00:41.399Z,56.46
2019-04-29T19:06:51.240Z,56.75
2019-04-29T19:13:00.113Z,57.54
2019-04-29T19:19:02.895Z,57.67
2019-04-29T19:25:11.788Z,57.82
2019-04-29T19:31:17.278Z,58.53
2019-04-29T19:37:28.508Z,59.11
2019-04-29T19:43:33.655Z,59.50
2019-04-29T19:49:40.163Z,59.95
2019-04-29T19:55:47.274Z,60.11
2019-04-29T20:02:02.145Z,60.10
2019-04-29T20:08:01.470Z,60.01
2019-04-29T20:14:18.315Z,60.41
2019-04-29T20:20:34.967Z,60.69
2019-04-29T20:26:44.000Z,61.54
2019-04-29T20:32:49.369Z,61.96
2019-04-29T20:38:55.564Z,62.02
2019-04-29T20:45:02.037Z,61.87
2019-04-29T20:51:13.330Z,61.58
2019-04-29T20:57:20.509Z,60.78
2019-04-29T21:03:29.895Z,60.69
2019-04-29T21:09:31.237Z,60.76
2019-04-29T21:15:52.204Z,60.58
2019-04-29T21:21:55.203Z,60.67
2019-04-29T21:28:02.317Z,60.59
2019-04-29T21:34:11.295Z,60.71
2019-04-29T21:40:29.485Z,60.65
2019-04-29T21:46:37.314Z,60.67
2019-04-29T21:52:44.767Z,60.66
2019-04-29T21:58:50.920Z,61.01
2019-04-29T22:04:56.735Z,61.25
2019-04-29T22:11:04.867Z,61.67
2019-04-29T22:17:11.094Z,62.03
2019-04-29T22:23:17.456Z,62.41
2019-04-29T22:29:23.373Z,62.48
2019-04-29T22:35:32.747Z,62.78
2019-04-29T22:41:58.433Z,63.02
2019-04-29T22:48:14.286Z,63.05
2019-04-29T22:54:12.202Z,63.55
2019-04-29T23:00:27.914Z,63.94
2019-04-29T23:06:30.396Z,64.27
2019-04-29T23:12:36.359Z,64.15
2019-04-29T23:18:44.045Z,64.56
2019-04-29T23:25:07.629Z,65.10
2019-04-29T23:31:13.669Z,65.04
2019-04-29T23:37:23.951Z,65.23
2019-04-29T23:43:28.634Z,65.55
2019-04-29T23:49:41.989Z,65.68
2019-04-29T23:55:42.321Z,66.30
